x

La Perouse Bank (46206) Wave Buoy

6:00 - Wed 6th May 2015 All times are PDT. -7 hours from GMT.

  • Sig Wave height 5.6ft
  • Peak Period 10s
  • Wind
    9mph, 11mph gusts
  • Sea Temp 53°f
  • Aire Temp 51°f
  • Sea Pressure 1020.1mb
  • La Perouse Bank
  • La Perouse Bank

More Historic Weather Station data

Upgrade to MSW Pro to gain access to the past 30 days of data for over 8000 Wavebouys and Weather Stations around the globe.

Join Pro

Comparision Forecast

View Surf forecast
   
mié 05/06 6:00 5.5ft 10s 9 11 mph 1020.1mb 53f 51f
5:00 6ft 10s 9 11 mph 1020mb 53f 51f
4:00 5.5ft 10s 11 13 mph 1020mb 53f 51f
3:00 6.5ft 9s 11 13 mph 1019.9mb 53f 51f
2:00 6ft 9s 11 13 mph 1020mb 53f 51f
1:00 6.5ft 11s 13 16 mph 1020.2mb 53f 51f
12:00 6ft 11s 11 13 mph 1020.1mb 53f 51f
mar 05/05 11:00 6ft 11s 11 13 mph 1020.2mb 53f 51f
10:00 6.5ft 11s 9 11 mph 1020.2mb 53f 51f
9:00 6.5ft 11s 7 9 mph 1019.7mb 53f 51f
8:00 7ft 10s 4 7 mph 1019.4mb 54f 51f
7:00 7.5ft 10s 4 7 mph 1019.1mb 53f 52f
6:00 7ft 10s 4
mph
1018.6mb 54f 52f
5:00 6.5ft 11s 7 9 mph 1018.4mb 53f 51f
4:00 7ft 8s 7 11 mph 1018.2mb 53f 51f
3:00 6.5ft 10s 4 7 mph 1018.2mb 53f 51f
2:00 7.5ft 12s 4 9 mph 1018mb 53f 49f
1:00 7ft 11s 2 4 mph 1017.8mb 53f 50f
12:00 7ft 11s 7 9 mph 1017.6mb 53f 49f
11:00 7.5ft 11s 7 9 mph 1017.2mb 53f 50f
10:00 7ft 12s 2 4 mph 1016.6mb 53f 51f
9:00 7ft 12s 2 4 mph 1016.2mb 53f 50f
8:00 7.5ft 10s 2 4 mph 1015.7mb 52f 50f
7:00 7.5ft 12s 2 7 mph 1015.1mb 52f 49f
6:00 8ft 12s 2 4 mph 1014.6mb 52f 48f
5:00 8ft 12s 4 7 mph 1013.9mb 52f 48f
4:00 8ft 11s 11 16 mph 1013.5mb 53f 49f
3:00 8ft 11s 7 13 mph 1013.2mb 53f 49f
2:00 8ft 13s 4 9 mph 1013.1mb 52f 50f
1:00 8.5ft 12s 4 7 mph 1012.9mb 52f 50f
12:00 8ft 11s 7 9 mph 1012.6mb 52f 49f
lun 05/04 11:00 8ft 12s 9 13 mph 1012.5mb 53f 49f
10:00 8ft 12s 11 13 mph 1012.4mb 53f 51f
9:00 8ft 14s 11 13 mph 1012.4mb 53f 50f
8:00 7.5ft 13s 11 13 mph 1012.4mb 52f 51f
7:00 7ft 14s 13 16 mph 1012.5mb 52f 51f
6:00 6.5ft 14s 11 13 mph 1012.7mb 52f 51f
5:00 7ft 15s 18 22 mph 1012.7mb 52f 50f
4:00 6ft 15s 11 13 mph 1012.8mb 52f 52f
3:00 6ft 15s 13 18 mph 1012.7mb 53f 52f
2:00 6ft 15s 16 20 mph 1012.1mb 53f 51f
1:00 6ft 15s 16 18 mph 1011.7mb 53f 51f
12:00 5ft 15s 20 25 mph 1011.1mb 53f 51f
11:00 4.5ft 15s 25 29 mph 1011.1mb 53f 49f
10:00 3.5ft 15s 20 25 mph 1010.8mb 53f 51f
9:00 3.5ft 15s 18 20 mph 1010.9mb 53f 51f
8:00 3ft 16s 13 16 mph 1011.5mb 53f 51f
7:00 3ft 18s 11 13 mph 1011.8mb 53f 50f
6:00 3ft 17s 9 11 mph 1011.8mb 53f 50f
5:00 3ft 8s 7 9 mph 1011.7mb 53f 50f
4:00 3ft 18s 4 9 mph 1011.7mb 53f 50f
3:00 3.5ft 8s 4 7 mph 1011.8mb 53f 49f
2:00 3.5ft 9s 9 11 mph 1012mb 53f 49f
1:00 3.5ft 10s 11 13 mph 1012.3mb 53f 49f
12:00 3.5ft 8s 13 18 mph 1012.4mb 53f 50f
dom 05/03 11:00 3.5ft 9s 16 18 mph 1012.7mb 53f 50f
10:00 3.5ft 8s 13 16 mph 1012.8mb 53f 50f
9:00 4ft 8s 16 18 mph 1013.1mb 53f 50f
8:00 4.5ft 8s 16 18 mph 1013.4mb 53f 50f
7:00 4.5ft 10s 16 18 mph 1013.7mb 53f 51f
6:00 4.5ft 10s 18
mph
1014.4mb 53f 51f
5:00 4.5ft 10s 16 18 mph 1014.9mb 53f 51f
4:00 4.5ft 10s 13 16 mph 1015.5mb 53f 51f
3:00 4.5ft 10s 13
mph
1016.2mb 53f 51f
2:00 4.5ft 9s 11 13 mph 1016.6mb 53f 51f
1:00 4.5ft 11s 9 11 mph 1017mb 53f 51f
12:00 4.5ft 11s 4 7 mph 1017.2mb 53f 51f
11:00 4.5ft 11s 2 4 mph 1017.5mb 53f 52f
10:00 4.5ft 11s 2
mph
1017.1mb 52f 52f
9:00 5ft 10s  -  2 mph 1017.1mb 52f 52f
8:00 5.5ft 11s 2 4 mph 1017.1mb 52f 51f
7:00 6ft 10s 4 7 mph 1016.7mb 52f 51f
6:00 6.5ft 11s 7
mph
1016.5mb 52f 51f
5:00 6ft 11s 4 7 mph 1016.4mb 52f 51f
4:00 6.5ft 12s 7 9 mph 1016.5mb 52f 51f
3:00 6.5ft 10s 4 7 mph 1016.2mb 52f 51f
2:00 6.5ft 12s 9 11 mph 1016.6mb 52f 51f
1:00 6ft 10s 11 13 mph 1016.9mb 52f 51f
12:00 6ft 11s 11 13 mph 1016.9mb 52f 51f
sáb 05/02 11:00 6ft 11s 16 18 mph 1017mb 52f 51f
10:00 6.5ft 12s 18 20 mph 1017.2mb 52f 51f
9:00 6.5ft 11s 20 22 mph 1017.2mb 52f 51f
8:00 6.5ft 12s 20 25 mph 1017.3mb 52f 51f
7:00 7ft 11s 20 25 mph 1017.5mb 52f 52f
6:00 8ft 12s 20 25 mph 1018.1mb 53f 52f
5:00 7ft 11s 20 25 mph 1018.5mb 53f 52f
4:00 7.5ft 12s 18 22 mph 1019.1mb 53f 51f
3:00 7ft 12s 16 20 mph 1019.4mb 53f 51f